createdAt,value
2019-04-28T00:00:41.451Z,13.13
2019-04-28T00:05:51.396Z,8.68
2019-04-28T00:08:22.449Z,8.75
2019-04-28T00:10:53.149Z,10.35
2019-04-28T00:13:21.287Z,8.95
2019-04-28T00:15:55.914Z,7.97
2019-04-28T00:18:34.739Z,9.95
2019-04-28T00:24:35.872Z,8.58
2019-04-28T00:27:11.673Z,11.45
2019-04-28T00:29:46.163Z,10.40
2019-04-28T00:32:21.052Z,11.08
2019-04-28T00:34:54.043Z,10.32
2019-04-28T00:37:26.955Z,8.18
2019-04-28T00:42:52.175Z,6.87
2019-04-28T00:45:22.294Z,7.70
2019-04-28T00:47:55.671Z,10.78
2019-04-28T00:50:37.375Z,11.45
2019-04-28T00:53:07.839Z,10.93
2019-04-28T00:55:36.353Z,10.90
2019-04-28T00:58:11.931Z,10.88
2019-04-28T01:00:52.519Z,11.43
2019-04-28T01:03:34.771Z,9.13
2019-04-28T01:06:03.589Z,9.58
2019-04-28T01:08:32.102Z,10.78
2019-04-28T01:11:24.179Z,13.30
2019-04-28T01:13:57.158Z,12.03
2019-04-28T01:16:46.275Z,10.45
2019-04-28T01:19:20.297Z,7.12
2019-04-28T01:22:22.368Z,8.10
2019-04-28T01:25:10.755Z,13.48
2019-04-28T01:27:44.386Z,9.08
2019-04-28T01:30:17.651Z,15.72
2019-04-28T01:33:11.547Z,11.78
2019-04-28T01:35:44.949Z,9.58
2019-04-28T01:38:16.606Z,10.90
2019-04-28T01:41:21.691Z,9.98
2019-04-28T01:43:55.164Z,12.50
2019-04-28T01:46:39.973Z,10.65
2019-04-28T01:49:11.752Z,15.48
2019-04-28T01:51:43.461Z,11.63
2019-04-28T01:54:16.438Z,10.88
2019-04-28T01:56:46.789Z,11.15
2019-04-28T01:59:21.560Z,10.78
2019-04-28T02:02:00.191Z,14.28
2019-04-28T02:04:32.524Z,9.90
2019-04-28T02:07:06.706Z,10.18
2019-04-28T02:09:49.951Z,9.25
2019-04-28T02:12:17.671Z,9.55
2019-04-28T02:14:52.171Z,12.60
2019-04-28T02:17:27.696Z,11.75
2019-04-28T02:20:00.635Z,9.28
2019-04-28T02:25:39.877Z,11.33
2019-04-28T02:28:11.861Z,9.80
2019-04-28T02:30:49.360Z,15.93
2019-04-28T02:33:21.086Z,14.70
2019-04-28T02:35:57.899Z,13.08
2019-04-28T02:38:34.344Z,9.43
2019-04-28T02:41:11.267Z,9.45
2019-04-28T02:46:20.615Z,12.47
2019-04-28T02:48:54.255Z,11.18
2019-04-28T02:54:44.636Z,15.32
2019-04-28T02:57:14.816Z,13.05
2019-04-28T02:59:55.114Z,15.60
2019-04-28T03:02:32.715Z,11.65
2019-04-28T03:05:11.681Z,10.65
2019-04-28T03:07:41.501Z,14.33
2019-04-28T03:10:13.448Z,13.28
2019-04-28T03:12:51.469Z,13.28
2019-04-28T03:15:30.519Z,10.65
2019-04-28T03:18:05.045Z,18.20
2019-04-28T03:20:54.514Z,13.05
2019-04-28T03:23:47.698Z,17.32
2019-04-28T03:26:36.537Z,21.52
2019-04-28T03:32:44.583Z,15.25
2019-04-28T03:35:05.506Z,14.68
2019-04-28T03:37:41.158Z,16.95
2019-04-28T03:40:13.054Z,14.47
2019-04-28T03:42:51.333Z,12.88
2019-04-28T03:45:22.789Z,14.00
2019-04-28T03:48:01.034Z,17.73
2019-04-28T03:50:35.320Z,11.12
2019-04-28T03:53:07.593Z,15.15
2019-04-28T03:56:04.575Z,11.83
2019-04-28T03:58:44.028Z,12.13
2019-04-28T04:01:14.610Z,18.20
2019-04-28T04:04:06.902Z,14.70
2019-04-28T04:12:36.824Z,16.67
2019-04-28T04:15:27.313Z,14.80
2019-04-28T04:20:52.367Z,11.53
2019-04-28T04:23:27.459Z,14.60
2019-04-28T04:26:22.622Z,11.93
2019-04-28T04:28:57.313Z,13.65
2019-04-28T04:31:47.038Z,13.78
2019-04-28T04:34:15.876Z,20.40
2019-04-28T04:37:06.957Z,14.87
2019-04-28T04:39:43.006Z,14.23
2019-04-28T04:42:23.042Z,16.73
2019-04-28T04:44:55.013Z,16.75
2019-04-28T04:47:33.002Z,13.48
2019-04-28T04:50:26.089Z,16.45
2019-04-28T04:56:25.918Z,16.05
2019-04-28T04:58:54.448Z,17.10
2019-04-28T05:01:26.518Z,18.70
2019-04-28T05:03:56.847Z,16.17
2019-04-28T05:06:44.699Z,9.78
2019-04-28T05:09:20.516Z,12.88
2019-04-28T05:11:51.779Z,15.13
2019-04-28T05:14:29.787Z,13.40
2019-04-28T05:22:42.638Z,14.80
2019-04-28T05:25:24.623Z,11.75
2019-04-28T05:28:03.324Z,13.48
2019-04-28T05:30:59.972Z,10.10
2019-04-28T05:33:41.940Z,14.98
2019-04-28T05:36:09.860Z,9.10
2019-04-28T05:38:40.507Z,15.90
2019-04-28T05:41:16.405Z,15.72
2019-04-28T05:43:51.979Z,12.20
2019-04-28T05:46:22.915Z,13.48
2019-04-28T05:48:57.370Z,12.07
2019-04-28T05:51:32.699Z,8.43
2019-04-28T05:59:52.608Z,14.70
2019-04-28T06:02:22.851Z,13.72
2019-04-28T06:04:59.968Z,8.75
2019-04-28T06:10:39.780Z,9.50
2019-04-28T06:13:13.142Z,15.23
2019-04-28T06:15:47.233Z,15.65
2019-04-28T06:18:24.139Z,13.88
2019-04-28T06:21:07.643Z,11.10
2019-04-28T06:23:44.226Z,14.13
2019-04-28T06:26:18.772Z,12.75
2019-04-28T06:28:53.063Z,22.60
2019-04-28T06:31:26.851Z,14.75
2019-04-28T06:33:55.764Z,8.83
2019-04-28T06:36:28.856Z,13.95
2019-04-28T06:39:03.787Z,14.68
2019-04-28T06:41:35.223Z,12.40
2019-04-28T06:44:49.089Z,15.80
2019-04-28T06:47:09.506Z,11.35
2019-04-28T06:52:37.065Z,15.58
2019-04-28T06:55:10.275Z,13.72
2019-04-28T07:00:35.306Z,11.93
2019-04-28T07:03:29.954Z,11.03
2019-04-28T07:06:03.006Z,13.35
2019-04-28T07:08:32.991Z,15.85
2019-04-28T07:11:03.164Z,15.13
2019-04-28T07:13:47.662Z,12.80
2019-04-28T07:16:20.511Z,15.80
2019-04-28T07:18:55.648Z,14.15
2019-04-28T07:21:39.551Z,11.05
2019-04-28T07:24:20.856Z,14.70
2019-04-28T07:32:04.472Z,11.60
2019-04-28T07:34:41.890Z,8.90
2019-04-28T07:39:57.289Z,17.55
2019-04-28T07:42:53.964Z,11.43
2019-04-28T07:45:31.297Z,16.57
2019-04-28T07:48:04.742Z,12.73
2019-04-28T07:50:38.007Z,15.90
2019-04-28T07:53:17.102Z,10.20
2019-04-28T07:55:54.197Z,17.17
2019-04-28T07:58:22.885Z,17.37
2019-04-28T08:00:58.625Z,18.37
2019-04-28T08:03:57.509Z,13.93
2019-04-28T08:06:27.069Z,12.20
2019-04-28T08:11:44.825Z,15.78
2019-04-28T08:14:23.691Z,16.37
2019-04-28T08:17:03.611Z,12.82
2019-04-28T08:19:46.472Z,16.42
2019-04-28T08:22:22.551Z,16.05
2019-04-28T08:24:54.324Z,14.60
2019-04-28T08:27:35.761Z,11.65
2019-04-28T08:30:07.673Z,18.10
2019-04-28T08:35:57.497Z,15.88
2019-04-28T08:41:25.172Z,12.63
2019-04-28T08:43:55.372Z,13.03
2019-04-28T08:46:30.264Z,11.43
2019-04-28T08:48:59.510Z,14.87
2019-04-28T08:51:28.527Z,10.30
2019-04-28T08:54:00.207Z,11.88
2019-04-28T08:59:42.800Z,11.10
2019-04-28T09:02:19.314Z,10.23
2019-04-28T09:04:49.450Z,16.53
2019-04-28T09:07:37.017Z,16.12
2019-04-28T09:13:12.709Z,12.30
2019-04-28T09:15:46.029Z,14.58
2019-04-28T09:21:28.838Z,19.55
2019-04-28T09:24:16.589Z,17.70
2019-04-28T09:26:48.392Z,14.55
2019-04-28T09:29:27.452Z,19.32
2019-04-28T09:31:57.626Z,12.53
2019-04-28T09:37:26.801Z,17.62
2019-04-28T09:39:58.677Z,19.42
2019-04-28T09:42:34.792Z,16.23
2019-04-28T09:45:24.143Z,11.28
2019-04-28T09:47:57.974Z,13.98
2019-04-28T09:50:28.060Z,19.30
2019-04-28T09:53:03.933Z,17.50
2019-04-28T09:55:35.156Z,13.45
2019-04-28T09:58:07.422Z,10.43
2019-04-28T10:01:07.761Z,12.25
2019-04-28T10:03:57.896Z,20.12
2019-04-28T10:06:27.579Z,18.77
2019-04-28T10:09:03.255Z,14.38
2019-04-28T10:11:45.719Z,19.70
2019-04-28T10:14:19.004Z,11.22
2019-04-28T10:16:49.754Z,15.68
2019-04-28T10:19:40.680Z,14.43
2019-04-28T10:25:44.007Z,33.15
2019-04-28T10:28:15.761Z,22.13
2019-04-28T10:30:54.659Z,12.00
2019-04-28T10:33:24.771Z,14.75
2019-04-28T10:38:55.969Z,21.15
2019-04-28T10:41:35.373Z,17.65
2019-04-28T10:44:08.404Z,15.63
2019-04-28T10:46:41.753Z,11.45
2019-04-28T10:49:35.630Z,17.02
2019-04-28T10:52:11.952Z,12.47
2019-04-28T10:54:42.606Z,14.55
2019-04-28T10:57:12.578Z,10.53
2019-04-28T10:59:44.076Z,14.93
2019-04-28T11:02:23.832Z,14.68
2019-04-28T11:05:08.500Z,20.17
2019-04-28T11:07:39.666Z,14.53
2019-04-28T11:10:29.456Z,13.98
2019-04-28T11:12:59.571Z,14.05
2019-04-28T11:15:53.972Z,16.85
2019-04-28T11:18:40.015Z,12.68
2019-04-28T11:21:01.231Z,8.63
2019-04-28T11:23:30.324Z,13.28
2019-04-28T11:25:58.930Z,14.33
2019-04-28T11:28:31.303Z,12.40
2019-04-28T11:31:01.091Z,14.05
2019-04-28T11:36:29.625Z,9.38
2019-04-28T11:39:04.823Z,8.23
2019-04-28T11:41:37.041Z,13.75
2019-04-28T11:44:13.898Z,7.08
2019-04-28T11:46:49.137Z,9.45
2019-04-28T11:49:20.601Z,10.38
2019-04-28T11:52:03.055Z,9.55
2019-04-28T11:54:42.035Z,7.55
2019-04-28T11:57:23.187Z,10.88
2019-04-28T12:02:47.107Z,9.78
2019-04-28T12:05:34.983Z,8.23
2019-04-28T12:10:51.548Z,8.03
2019-04-28T12:13:32.875Z,7.22
2019-04-28T12:16:19.126Z,9.63
2019-04-28T12:18:59.061Z,6.05
2019-04-28T12:21:33.403Z,8.05
2019-04-28T12:24:18.171Z,8.18
2019-04-28T12:26:53.325Z,6.58
2019-04-28T12:29:28.941Z,4.92
2019-04-28T12:31:58.171Z,6.05
2019-04-28T12:34:43.475Z,7.37
2019-04-28T12:37:09.706Z,5.15
2019-04-28T12:40:15.771Z,6.78
2019-04-28T12:42:54.472Z,5.50
2019-04-28T12:48:14.772Z,7.65
2019-04-28T12:50:54.134Z,5.17
2019-04-28T12:53:32.386Z,6.17
2019-04-28T12:59:00.738Z,7.22
2019-04-28T13:01:41.636Z,4.03
2019-04-28T13:04:14.753Z,9.50
2019-04-28T13:07:06.595Z,10.15
2019-04-28T13:09:41.431Z,7.50
2019-04-28T13:12:17.421Z,9.53
2019-04-28T13:14:46.055Z,8.03
2019-04-28T13:17:22.304Z,9.20
2019-04-28T13:19:55.451Z,8.13
2019-04-28T13:22:24.063Z,9.28
2019-04-28T13:25:00.270Z,10.70
2019-04-28T13:27:31.770Z,7.42
2019-04-28T13:30:00.298Z,8.80
2019-04-28T13:32:34.702Z,7.90
2019-04-28T13:35:03.443Z,6.75
2019-04-28T13:37:33.626Z,9.53
2019-04-28T13:40:11.053Z,7.08
2019-04-28T13:45:24.936Z,8.45
2019-04-28T13:47:59.538Z,10.03
2019-04-28T13:50:34.989Z,7.45
2019-04-28T13:53:06.830Z,9.78
2019-04-28T13:55:46.985Z,7.78
2019-04-28T14:01:13.251Z,8.95
2019-04-28T14:03:51.096Z,4.95
2019-04-28T14:06:28.434Z,5.85
2019-04-28T14:08:57.795Z,7.78
2019-04-28T14:11:41.043Z,5.20
2019-04-28T14:14:15.100Z,6.92
2019-04-28T14:16:43.432Z,5.50
2019-04-28T14:19:14.759Z,7.47
2019-04-28T14:21:53.633Z,5.80
2019-04-28T14:24:29.895Z,8.03
2019-04-28T14:27:11.888Z,9.48
2019-04-28T14:29:49.564Z,7.28
2019-04-28T14:32:18.282Z,4.42
2019-04-28T14:34:51.237Z,6.92
2019-04-28T14:37:27.453Z,10.03
2019-04-28T14:40:01.526Z,6.28
2019-04-28T14:42:34.088Z,8.58
2019-04-28T14:45:09.177Z,7.12
2019-04-28T14:47:51.594Z,7.97
2019-04-28T14:50:22.381Z,6.05
2019-04-28T14:52:59.797Z,5.50
2019-04-28T14:58:16.015Z,7.80
2019-04-28T15:01:03.631Z,4.40
2019-04-28T15:03:39.438Z,9.55
2019-04-28T15:06:15.802Z,7.00
2019-04-28T15:08:50.574Z,6.22
2019-04-28T15:11:35.727Z,9.78
2019-04-28T15:14:04.338Z,3.77
2019-04-28T15:16:46.218Z,8.88
2019-04-28T15:19:16.645Z,5.12
2019-04-28T15:21:49.795Z,5.78
2019-04-28T15:24:30.879Z,5.47
2019-04-28T15:27:07.686Z,6.47
2019-04-28T15:33:04.118Z,3.98
2019-04-28T15:35:43.079Z,7.80
2019-04-28T15:38:19.364Z,8.28
2019-04-28T15:40:56.579Z,11.05
2019-04-28T15:43:34.567Z,5.70
2019-04-28T15:46:32.619Z,6.40
2019-04-28T15:51:40.079Z,7.25
2019-04-28T15:54:14.404Z,11.00
2019-04-28T15:56:46.881Z,9.53
2019-04-28T15:59:18.007Z,4.62
2019-04-28T16:01:56.535Z,5.55
2019-04-28T16:04:32.174Z,6.53
2019-04-28T16:07:24.974Z,8.88
2019-04-28T16:10:04.562Z,6.17
2019-04-28T16:12:44.591Z,8.18
2019-04-28T16:15:14.924Z,5.78
2019-04-28T16:17:43.472Z,4.70
2019-04-28T16:20:23.575Z,6.83
2019-04-28T16:22:55.830Z,5.95
2019-04-28T16:25:31.375Z,4.92
2019-04-28T16:28:10.772Z,5.53
2019-04-28T16:30:46.163Z,4.37
2019-04-28T16:33:20.370Z,4.53
2019-04-28T16:35:54.023Z,5.97
2019-04-28T16:38:24.100Z,9.05
2019-04-28T16:41:37.951Z,8.43
2019-04-28T16:43:41.533Z,9.28
2019-04-28T16:46:11.935Z,11.15
2019-04-28T16:49:01.375Z,13.98
2019-04-28T16:51:27.419Z,10.93
2019-04-28T16:54:02.998Z,6.05
2019-04-28T16:56:55.519Z,6.28
2019-04-28T16:59:45.129Z,6.47
2019-04-28T17:02:27.034Z,4.62
2019-04-28T17:05:01.432Z,5.53
2019-04-28T17:07:52.534Z,6.42
2019-04-28T17:10:22.575Z,5.95
2019-04-28T17:13:45.916Z,7.47
2019-04-28T17:15:36.193Z,5.10
2019-04-28T17:18:12.147Z,5.55
2019-04-28T17:20:55.092Z,6.65
2019-04-28T17:28:56.185Z,6.33
2019-04-28T17:31:36.432Z,4.55
2019-04-28T17:34:09.453Z,2.80
2019-04-28T17:36:47.208Z,6.10
2019-04-28T17:39:34.988Z,3.80
2019-04-28T17:42:08.414Z,4.97
2019-04-28T17:44:38.638Z,5.65
2019-04-28T17:47:10.456Z,6.08
2019-04-28T17:49:39.931Z,6.55
2019-04-28T17:52:18.227Z,6.70
2019-04-28T17:54:48.967Z,8.48
2019-04-28T17:57:25.605Z,5.22
2019-04-28T18:00:09.114Z,9.68
2019-04-28T18:11:28.892Z,9.08
2019-04-28T18:13:59.576Z,4.28
2019-04-28T18:16:35.801Z,4.50
2019-04-28T18:19:09.556Z,5.90
2019-04-28T18:21:41.562Z,5.47
2019-04-28T18:24:17.500Z,5.45
2019-04-28T18:26:59.486Z,5.33
2019-04-28T18:29:39.477Z,5.33
2019-04-28T18:32:21.926Z,8.45
2019-04-28T18:34:53.659Z,4.45
2019-04-28T18:37:43.333Z,3.95
2019-04-28T18:40:27.265Z,4.65
2019-04-28T18:45:46.357Z,6.62
2019-04-28T18:51:19.445Z,6.95
2019-04-28T18:53:56.719Z,7.90
2019-04-28T18:56:27.865Z,8.55
2019-04-28T18:58:59.878Z,6.53
2019-04-28T19:01:30.678Z,8.23
2019-04-28T19:04:26.275Z,5.80
2019-04-28T19:07:08.249Z,6.90
2019-04-28T19:12:36.558Z,5.92
2019-04-28T19:15:10.853Z,9.10
2019-04-28T19:17:46.874Z,8.98
2019-04-28T19:20:32.191Z,8.18
2019-04-28T19:23:03.822Z,9.28
2019-04-28T19:26:07.860Z,7.30
2019-04-28T19:28:36.617Z,7.72
2019-04-28T19:31:13.909Z,8.65
2019-04-28T19:33:49.424Z,8.80
2019-04-28T19:36:27.814Z,7.10
2019-04-28T19:39:23.047Z,7.47
2019-04-28T19:42:00.178Z,9.90
2019-04-28T19:44:33.037Z,6.47
2019-04-28T19:47:05.912Z,9.60
2019-04-28T19:49:36.275Z,7.90
2019-04-28T19:52:12.539Z,7.80
2019-04-28T19:54:42.358Z,8.08
2019-04-28T19:57:13.823Z,7.75
2019-04-28T20:00:09.748Z,6.37
2019-04-28T20:03:01.050Z,5.95
2019-04-28T20:05:37.168Z,6.50
2019-04-28T20:11:05.499Z,8.85
2019-04-28T20:13:40.849Z,8.15
2019-04-28T20:16:13.959Z,9.53
2019-04-28T20:18:45.372Z,8.93
2019-04-28T20:21:15.274Z,10.28
2019-04-28T20:23:43.910Z,10.55
2019-04-28T20:26:16.480Z,9.68
2019-04-28T20:28:49.453Z,9.78
2019-04-28T20:31:22.769Z,8.13
2019-04-28T20:34:05.475Z,11.85
2019-04-28T20:36:43.315Z,7.78
2019-04-28T20:39:33.486Z,10.25
2019-04-28T20:42:21.545Z,8.50
2019-04-28T20:47:35.170Z,11.48
2019-04-28T20:50:25.090Z,12.63
2019-04-28T20:53:55.056Z,11.68
2019-04-28T20:55:54.821Z,11.40
2019-04-28T20:58:24.786Z,9.48
2019-04-28T21:00:58.087Z,9.88
2019-04-28T21:03:31.265Z,9.60
2019-04-28T21:09:09.505Z,12.23
2019-04-28T21:11:41.446Z,8.48
2019-04-28T21:14:15.335Z,8.20
2019-04-28T21:16:47.007Z,8.80
2019-04-28T21:19:20.393Z,7.80
2019-04-28T21:21:51.965Z,10.63
2019-04-28T21:24:25.147Z,6.83
2019-04-28T21:26:59.281Z,11.12
2019-04-28T21:29:32.701Z,9.78
2019-04-28T21:32:16.295Z,7.97
2019-04-28T21:34:52.716Z,8.25
2019-04-28T21:37:22.942Z,10.93
2019-04-28T21:39:55.047Z,9.08
2019-04-28T21:42:51.211Z,10.85
2019-04-28T21:45:26.202Z,8.15
2019-04-28T21:50:39.231Z,10.15
2019-04-28T21:53:16.010Z,10.90
2019-04-28T21:55:53.827Z,9.90
2019-04-28T22:01:38.567Z,10.50
2019-04-28T22:04:13.020Z,11.57
2019-04-28T22:06:45.283Z,9.15
2019-04-28T22:09:21.046Z,8.13
2019-04-28T22:11:59.284Z,7.90
2019-04-28T22:14:32.608Z,9.20
2019-04-28T22:17:12.322Z,7.50
2019-04-28T22:19:52.807Z,7.12
2019-04-28T22:22:24.567Z,6.28
2019-04-28T22:28:17.680Z,10.50
2019-04-28T22:30:55.781Z,11.55
2019-04-28T22:33:29.770Z,9.53
2019-04-28T22:36:02.815Z,8.18
2019-04-28T22:38:51.952Z,10.48
2019-04-28T22:41:43.728Z,11.00
2019-04-28T22:44:15.567Z,9.75
2019-04-28T22:46:45.980Z,6.85
2019-04-28T22:49:22.133Z,6.00
2019-04-28T22:51:46.602Z,8.70
2019-04-28T22:54:22.200Z,7.60
2019-04-28T22:57:25.997Z,10.03
2019-04-28T22:59:45.185Z,9.83
2019-04-28T23:02:30.947Z,9.35
2019-04-28T23:05:30.221Z,8.38
2019-04-28T23:07:45.373Z,9.40
2019-04-28T23:10:26.013Z,6.62
2019-04-28T23:12:59.891Z,7.78
2019-04-28T23:15:44.121Z,7.33
2019-04-28T23:18:14.446Z,8.75
2019-04-28T23:21:28.633Z,5.95
2019-04-28T23:24:01.638Z,6.90
2019-04-28T23:26:33.356Z,6.90
2019-04-28T23:29:04.498Z,5.67
2019-04-28T23:31:36.463Z,4.40
2019-04-28T23:34:14.706Z,6.15
2019-04-28T23:37:21.403Z,5.50
2019-04-28T23:39:52.551Z,2.80
2019-04-28T23:42:35.206Z,6.97
2019-04-28T23:45:13.260Z,4.22
2019-04-28T23:47:47.170Z,3.85
2019-04-28T23:50:31.626Z,7.08
2019-04-28T23:53:06.643Z,5.50
2019-04-28T23:55:40.752Z,5.15
2019-04-28T23:58:12.896Z,5.50
